Time;durP1;ratioP1;P1;durP2;ratioP2;P2;SDS_P1;SDS_P2;PMS_P1;PMS_P2;Temp;Humidity;BMP_temperature;BMP_pressure;BME280_temperature;BME280_humidity;BME280_pressure;Samples;Min_cycle;Max_cycle;Signal;HPM_P1;HPM_P2
2022/04/24 00:01:31;;;;;;;31.10;20.30;;;;;;;4.72;73.72;97544.67;105811;1282;22704;-75
2022/04/24 00:03:58;;;;;;;32.40;18.80;;;;;;;4.75;74.16;97542.88;105370;1284;138131;-75
2022/04/24 00:06:25;;;;;;;27.70;18.40;;;;;;;4.81;74.30;97536.98;105639;1284;22541;-75
2022/04/24 00:09:06;;;;;;;29.30;18.20;;;;;;;4.87;74.43;97530.98;105432;1284;137954;-75
2022/04/24 00:11:33;;;;;;;30.80;18.80;;;;;;;4.91;74.51;97536.88;105661;1282;22550;-75
2022/04/24 00:14:00;;;;;;;31.20;19.20;;;;;;;4.92;74.23;97535.33;105730;1282;22567;-74
2022/04/24 00:16:27;;;;;;;32.10;20.70;;;;;;;4.85;73.85;97533.16;105559;1282;137823;-77
2022/04/24 00:19:08;;;;;;;31.70;20.30;;;;;;;4.73;73.80;97539.11;105584;1282;24340;-75
2022/04/24 00:21:49;;;;;;;32.90;20.10;;;;;;;4.61;74.11;97536.30;105436;1283;137479;-75
2022/04/24 00:24:17;;;;;;;33.90;21.50;;;;;;;4.53;74.34;97537.50;105365;1284;22708;-75
2022/04/24 00:26:44;;;;;;;32.70;20.40;;;;;;;4.47;74.52;97537.64;105625;1284;22554;-76
2022/04/24 00:29:10;;;;;;;30.10;17.60;;;;;;;4.40;74.84;97531.65;105571;1284;138141;-76
2022/04/24 00:31:38;;;;;;;28.90;18.20;;;;;;;4.41;75.18;97530.02;105790;1282;24330;-76
2022/04/24 00:34:04;;;;;;;31.30;20.00;;;;;;;4.44;75.31;97528.20;105637;1282;137577;-76
2022/04/24 00:36:33;;;;;;;31.70;19.40;;;;;;;4.45;75.39;97525.15;105616;1282;25457;-75
2022/04/24 00:39:00;;;;;;;30.50;19.30;;;;;;;4.44;75.57;97521.51;105585;1282;137830;-77
2022/04/24 00:41:49;;;;;;;25.20;17.10;;;;;;;4.46;75.83;97512.82;105586;1282;22649;-76
2022/04/24 00:44:17;;;;;;;26.30;16.80;;;;;;;4.49;75.78;97510.77;105651;1285;22720;-75
2022/04/24 00:47:15;;;;;;;25.90;16.00;;;;;;;4.53;76.03;97507.30;105445;1284;137677;-77
2022/04/24 00:49:44;;;;;;;31.30;17.20;;;;;;;4.56;76.44;97506.40;105601;1284;22572;-75
2022/04/24 00:52:12;;;;;;;26.20;18.00;;;;;;;4.60;76.49;97497.27;105629;1282;137806;-75
2022/04/24 00:54:40;;;;;;;26.70;19.30;;;;;;;4.61;76.42;97494.77;105607;1282;22704;-77
2022/04/24 00:57:09;;;;;;;33.00;21.80;;;;;;;4.61;76.54;97488.20;105550;1282;138216;-74
2022/04/24 00:59:39;;;;;;;33.40;21.90;;;;;;;4.65;76.80;97491.38;105672;1282;22728;-75
2022/04/24 01:02:08;;;;;;;31.20;22.10;;;;;;;4.72;77.07;97489.36;105470;1282;22564;-78
2022/04/24 01:04:49;;;;;;;28.20;20.30;;;;;;;4.80;77.10;97492.08;105661;1282;137980;-75
2022/04/24 01:07:16;;;;;;;33.80;21.20;;;;;;;4.85;76.98;97486.26;105533;1284;25272;-75
2022/04/24 01:09:43;;;;;;;30.70;20.80;;;;;;;4.89;77.09;97485.77;105553;1284;137722;-75
2022/04/24 01:12:10;;;;;;;28.20;17.90;;;;;;;4.91;76.41;97488.30;105486;1282;22561;-75
2022/04/24 01:14:37;;;;;;;27.60;16.70;;;;;;;4.83;75.35;97488.54;105703;1282;25262;-76
2022/04/24 01:17:05;;;;;;;31.80;18.90;;;;;;;4.62;74.81;97490.69;105505;1282;137775;-75
2022/04/24 01:19:32;;;;;;;31.60;19.10;;;;;;;4.45;75.26;97493.67;105441;1282;22572;-77
2022/04/24 01:22:00;;;;;;;31.40;19.40;;;;;;;4.31;75.61;97494.69;105417;1284;138277;-75
2022/04/24 01:24:29;;;;;;;27.20;18.40;;;;;;;4.17;75.97;97487.21;105378;1285;25332;-75
2022/04/24 01:26:59;;;;;;;28.00;18.10;;;;;;;4.13;76.58;97484.61;105752;1282;138263;-75
2022/04/24 01:29:26;;;;;;;30.40;18.80;;;;;;;4.15;77.10;97483.42;105565;1282;24422;-76
2022/04/24 01:31:53;;;;;;;31.60;19.20;;;;;;;4.17;77.84;97477.84;105707;1282;22858;-75
2022/04/24 01:34:21;;;;;;;29.50;19.70;;;;;;;4.24;78.36;97482.48;105585;1282;138449;-76
2022/04/24 01:36:48;;;;;;;27.70;19.30;;;;;;;4.30;78.75;97475.02;105592;1282;22573;-76
2022/04/24 01:39:17;;;;;;;26.80;17.90;;;;;;;4.41;79.18;97471.78;105631;1282;138887;-76
2022/04/24 01:41:44;;;;;;;29.20;18.30;;;;;;;4.54;79.16;97465.83;105592;1284;22577;-76
2022/04/24 01:44:12;;;;;;;26.90;18.10;;;;;;;4.67;79.25;97463.92;105379;1284;24289;-76
2022/04/24 01:46:39;;;;;;;28.00;18.60;;;;;;;4.80;79.23;97459.82;105294;1285;137799;-76
2022/04/24 01:49:06;;;;;;;31.80;19.10;;;;;;;4.92;79.55;97456.97;105390;1284;22725;-75
2022/04/24 01:51:35;;;;;;;29.00;19.60;;;;;;;5.03;79.42;97450.93;105506;1284;138175;-75
2022/04/24 01:54:02;;;;;;;27.20;18.90;;;;;;;5.15;79.45;97454.59;105711;1282;24278;-75
2022/04/24 01:56:29;;;;;;;33.10;19.10;;;;;;;5.26;79.18;97450.70;105662;1282;22570;-75
2022/04/24 01:58:56;;;;;;;29.00;19.80;;;;;;;5.39;78.97;97452.06;105438;1282;137730;-75
2022/04/24 02:01:37;;;;;;;28.60;20.30;;;;;;;5.53;78.75;97447.16;105691;1282;25608;-75
2022/04/24 02:04:04;;;;;;;32.50;20.50;;;;;;;5.63;78.66;97446.58;105454;1284;137824;-75
2022/04/24 02:06:31;;;;;;;28.10;21.20;;;;;;;5.73;78.34;97444.67;105674;1285;22569;-75
2022/04/24 02:08:58;;;;;;;29.50;19.40;;;;;;;5.80;77.99;97445.95;105405;1285;138366;-76
2022/04/24 02:11:25;;;;;;;28.60;18.60;;;;;;;5.82;76.98;97441.29;105452;1285;25502;-75
2022/04/24 02:13:52;;;;;;;29.60;18.50;;;;;;;5.84;76.79;97439.60;105641;1282;22661;-75
2022/04/24 02:16:19;;;;;;;29.10;18.90;;;;;;;5.87;76.60;97431.66;105317;1283;137738;-75
2022/04/24 02:18:49;;;;;;;34.90;21.00;;;;;;;5.89;76.20;97430.02;105569;1282;23936;-75
2022/04/24 02:21:16;;;;;;;31.00;19.20;;;;;;;5.82;75.74;97431.45;105665;1282;137880;-75
2022/04/24 02:23:42;;;;;;;30.50;20.20;;;;;;;5.71;75.76;97430.64;105583;1282;22560;-75
2022/04/24 02:26:10;;;;;;;32.60;20.30;;;;;;;5.65;76.06;97429.23;105328;1284;22544;-75
2022/04/24 02:28:36;;;;;;;32.40;20.40;;;;;;;5.63;76.35;97428.21;105516;1283;137877;-75
2022/04/24 02:31:03;;;;;;;33.20;21.10;;;;;;;5.66;76.54;97429.84;105363;1284;22544;-75
2022/04/24 02:33:30;;;;;;;28.60;18.80;;;;;;;5.70;76.71;97432.73;105345;1282;138230;-76
2022/04/24 02:35:57;;;;;;;31.90;18.80;;;;;;;5.75;76.94;97430.60;105548;1285;24681;-75
2022/04/24 02:38:24;;;;;;;29.80;19.70;;;;;;;5.77;76.56;97429.58;105739;1282;25501;-75
2022/04/24 02:40:51;;;;;;;34.30;21.50;;;;;;;5.74;76.04;97428.79;105519;1282;137803;-77
2022/04/24 02:43:18;;;;;;;34.40;20.70;;;;;;;5.73;76.02;97425.59;105506;1284;24462;-75
2022/04/24 02:45:46;;;;;;;32.70;20.90;;;;;;;5.73;76.02;97428.63;105499;1284;137814;-76
2022/04/24 02:48:14;;;;;;;33.60;21.30;;;;;;;5.72;76.10;97430.61;105547;1285;24318;-75
2022/04/24 02:50:41;;;;;;;33.90;21.90;;;;;;;5.74;76.31;97429.13;105514;1284;25331;-75
2022/04/24 02:53:08;;;;;;;30.50;18.50;;;;;;;5.77;76.19;97423.83;105515;1282;138050;-75
2022/04/24 02:55:35;;;;;;;30.70;19.90;;;;;;;5.76;76.01;97421.92;105605;1283;24393;-75
2022/04/24 02:58:04;;;;;;;32.50;20.50;;;;;;;5.73;75.96;97419.34;105771;1282;137922;-75
2022/04/24 03:00:42;;;;;;;35.70;22.70;;;;;;;5.68;76.12;97419.60;105545;1282;22553;-76
2022/04/24 03:03:10;;;;;;;35.90;21.60;;;;;;;5.66;76.09;97420.98;105509;1282;138860;-75
2022/04/24 03:05:37;;;;;;;31.20;20.30;;;;;;;5.60;76.14;97419.28;105439;1285;25443;-75
2022/04/24 03:08:05;;;;;;;35.20;21.10;;;;;;;5.53;76.37;97419.79;105697;1282;24387;-75
2022/04/24 03:10:32;;;;;;;35.50;19.70;;;;;;;5.48;76.65;97415.38;105409;1284;138212;-75
2022/04/24 03:12:59;;;;;;;29.60;19.80;;;;;;;5.51;76.82;97412.40;105607;1285;23077;-75
2022/04/24 03:15:26;;;;;;;29.20;19.10;;;;;;;5.54;77.00;97405.10;105602;1282;138127;-75
2022/04/24 03:17:54;;;;;;;28.70;19.00;;;;;;;5.56;77.48;97406.19;105750;1282;22575;-75
2022/04/24 03:20:22;;;;;;;28.60;18.80;;;;;;;5.60;77.88;97404.31;105679;1282;24291;-75
2022/04/24 03:22:51;;;;;;;33.00;21.60;;;;;;;5.65;78.26;97399.78;105299;1282;137809;-75
2022/04/24 03:25:18;;;;;;;30.90;20.10;;;;;;;5.73;78.31;97393.45;105549;1282;24275;-75
2022/04/24 03:27:45;;;;;;;30.60;19.50;;;;;;;5.80;78.37;97390.96;105227;1284;138268;-75
2022/04/24 03:30:12;;;;;;;28.10;18.10;;;;;;;5.89;78.00;97388.03;105541;1284;22584;-77
2022/04/24 03:32:40;;;;;;;30.10;19.20;;;;;;;5.97;78.01;97392.41;105611;1284;22576;-75
2022/04/24 03:35:09;;;;;;;28.00;19.10;;;;;;;6.03;77.82;97397.46;105347;1282;138529;-75
2022/04/24 03:37:38;;;;;;;29.00;18.70;;;;;;;6.10;77.73;97402.89;105675;1282;24501;-75
2022/04/24 03:40:06;;;;;;;29.80;19.60;;;;;;;6.16;77.77;97398.19;105697;1282;138186;-75
2022/04/24 03:42:33;;;;;;;29.70;19.50;;;;;;;6.23;77.50;97404.27;105592;1282;22541;-75
2022/04/24 03:45:01;;;;;;;25.60;17.80;;;;;;;6.30;77.45;97409.30;105407;1283;138643;-75
2022/04/24 03:47:28;;;;;;;26.80;17.50;;;;;;;6.35;76.91;97410.69;105652;1284;22563;-75
2022/04/24 03:49:55;;;;;;;27.40;18.20;;;;;;;6.35;76.41;97414.74;105611;1284;24320;-75
2022/04/24 03:52:22;;;;;;;28.10;17.50;;;;;;;6.34;76.11;97415.75;105814;1284;137861;-76
2022/04/24 03:54:49;;;;;;;29.30;19.30;;;;;;;6.27;75.89;97413.45;105701;1282;24325;-75
2022/04/24 03:57:16;;;;;;;28.50;19.00;;;;;;;6.25;76.14;97417.16;105330;1282;137738;-75
2022/04/24 03:59:43;;;;;;;30.10;19.20;;;;;;;6.24;76.42;97417.63;105665;1282;22704;-75
2022/04/24 04:02:10;;;;;;;31.30;20.60;;;;;;;6.25;76.50;97424.02;105632;1281;22548;-75
2022/04/24 04:04:37;;;;;;;33.30;20.50;;;;;;;6.28;76.62;97423.98;105434;1284;138183;-77
2022/04/24 04:07:04;;;;;;;32.60;21.10;;;;;;;6.33;76.84;97433.41;105593;1285;24305;-75
2022/04/24 04:09:31;;;;;;;34.40;22.80;;;;;;;6.35;76.74;97448.16;105673;1284;137954;-76
2022/04/24 04:11:58;;;;;;;37.80;24.40;;;;;;;6.37;76.59;97465.48;105555;1284;24635;-76
2022/04/24 04:14:25;;;;;;;42.20;25.90;;;;;;;6.35;76.52;97474.44;105610;1284;24235;-76
2022/04/24 04:16:52;;;;;;;37.90;24.40;;;;;;;6.31;76.49;97475.19;105463;1282;137576;-76
2022/04/24 04:19:19;;;;;;;46.80;29.10;;;;;;;6.26;76.73;97474.17;105728;1282;22667;-75
2022/04/24 04:21:46;;;;;;;46.00;28.20;;;;;;;6.21;76.78;97471.10;105536;1282;138235;-75
2022/04/24 04:24:13;;;;;;;45.90;27.80;;;;;;;6.19;77.20;97465.55;105665;1282;22541;-75
2022/04/24 04:26:40;;;;;;;43.50;28.40;;;;;;;6.17;77.55;97454.27;105652;1282;22582;-75
2022/04/24 04:29:07;;;;;;;50.10;29.90;;;;;;;6.16;77.66;97449.27;105487;1284;137658;-74
2022/04/24 04:31:34;;;;;;;53.10;31.80;;;;;;;6.13;78.16;97446.41;105692;1284;23937;-74
2022/04/24 04:34:01;;;;;;;49.40;31.30;;;;;;;6.16;78.58;97450.02;105497;1284;138464;-74
2022/04/24 04:36:29;;;;;;;49.30;29.20;;;;;;;6.22;78.89;97449.91;105757;1283;22781;-74
2022/04/24 04:38:56;;;;;;;54.10;31.30;;;;;;;6.26;78.94;97448.28;105695;1284;24406;-74
2022/04/24 04:41:23;;;;;;;47.40;29.20;;;;;;;6.32;78.99;97446.41;105632;1284;137610;-74
2022/04/24 04:44:04;;;;;;;45.80;27.80;;;;;;;6.31;79.14;97445.86;105596;1285;25414;-73
2022/04/24 04:46:31;;;;;;;49.00;29.20;;;;;;;6.28;79.18;97443.22;105390;1283;137742;-75
2022/04/24 04:48:58;;;;;;;50.40;29.10;;;;;;;6.29;79.53;97442.32;105581;1284;22543;-73
2022/04/24 04:51:24;;;;;;;52.40;30.00;;;;;;;6.36;79.94;97439.09;105583;1284;138523;-73
2022/04/24 04:53:54;;;;;;;49.80;30.20;;;;;;;6.44;80.38;97438.31;105631;1284;23088;-74
2022/04/24 04:56:22;;;;;;;54.70;32.80;;;;;;;6.50;80.45;97441.02;105624;1282;22593;-74
2022/04/24 04:58:50;;;;;;;52.40;34.10;;;;;;;6.54;80.48;97437.13;105544;1281;137702;-74
2022/04/24 05:01:17;;;;;;;57.20;36.00;;;;;;;6.58;80.54;97437.37;105678;1284;24020;-74
2022/04/24 05:03:44;;;;;;;61.10;35.80;;;;;;;6.63;80.63;97433.34;105616;1282;138704;-75
2022/04/24 05:06:11;;;;;;;49.90;31.90;;;;;;;6.68;80.57;97430.56;105593;1284;22582;-73
2022/04/24 05:08:37;;;;;;;52.20;33.20;;;;;;;6.70;80.55;97424.80;105573;1284;22550;-74
2022/04/24 05:11:04;;;;;;;60.30;36.70;;;;;;;6.71;80.56;97430.17;105267;1284;138204;-73
2022/04/24 05:13:31;;;;;;;60.30;36.50;;;;;;;6.73;80.90;97431.65;105555;1284;25444;-75
2022/04/24 05:15:58;;;;;;;60.60;36.50;;;;;;;6.75;80.95;97429.80;105583;1282;137771;-74
2022/04/24 05:18:26;;;;;;;58.10;34.50;;;;;;;6.77;80.60;97426.54;105576;1284;24276;-73
2022/04/24 05:20:53;;;;;;;52.90;33.20;;;;;;;6.84;80.44;97428.42;105672;1284;22550;-73
2022/04/24 05:23:20;;;;;;;55.40;34.00;;;;;;;6.90;80.49;97429.92;105571;1281;138265;-73
2022/04/24 05:25:47;;;;;;;53.30;32.40;;;;;;;6.94;80.60;97422.95;105713;1281;22547;-73
2022/04/24 05:28:14;;;;;;;50.40;32.10;;;;;;;6.98;80.65;97421.98;105568;1284;137937;-74
2022/04/24 05:30:41;;;;;;;53.70;32.50;;;;;;;6.98;80.44;97413.61;105753;1284;25426;-74
2022/04/24 05:33:08;;;;;;;48.70;32.10;;;;;;;6.98;80.35;97415.44;105609;1284;138672;-74
2022/04/24 05:35:35;;;;;;;44.50;27.30;;;;;;;6.98;80.10;97411.06;105706;1284;22577;-74
2022/04/24 05:38:02;;;;;;;48.80;29.20;;;;;;;6.99;80.34;97411.02;105637;1284;22721;-73
2022/04/24 05:40:29;;;;;;;51.30;32.80;;;;;;;6.99;80.59;97407.94;105533;1284;137826;-73
2022/04/24 05:42:56;;;;;;;47.80;29.40;;;;;;;6.98;80.44;97407.33;105688;1284;22552;-75
2022/04/24 05:45:24;;;;;;;45.30;29.60;;;;;;;6.94;80.40;97405.53;105497;1284;138008;-73
2022/04/24 05:47:54;;;;;;;46.40;29.60;;;;;;;6.92;80.75;97403.16;105523;1285;25320;-73
2022/04/24 05:50:23;;;;;;;46.10;27.70;;;;;;;6.90;80.87;97401.95;105719;1284;22572;-72
2022/04/24 05:52:54;;;;;;;45.30;27.80;;;;;;;6.90;80.96;97397.39;105391;1284;138415;-72
2022/04/24 05:55:21;;;;;;;45.50;28.90;;;;;;;6.87;81.07;97393.89;105580;1284;22566;-73
2022/04/24 05:57:49;;;;;;;47.70;29.90;;;;;;;6.82;81.07;97393.07;105671;1284;137672;-73
2022/04/24 06:00:17;;;;;;;50.60;31.40;;;;;;;6.78;81.29;97401.66;105707;1284;22704;-75
2022/04/24 06:02:44;;;;;;;44.40;28.30;;;;;;;6.76;81.18;97402.48;105256;1284;22580;-74
2022/04/24 06:05:13;;;;;;;44.50;27.70;;;;;;;6.73;81.29;97402.83;105095;1284;138495;-74
2022/04/24 06:07:40;;;;;;;44.10;27.40;;;;;;;6.72;81.32;97403.88;105141;1284;22541;-74
2022/04/24 06:10:09;;;;;;;46.70;29.10;;;;;;;6.68;81.34;97409.08;105467;1283;137870;-74
2022/04/24 06:12:53;;;;;;;47.40;29.10;;;;;;;6.64;81.42;97414.80;105472;1284;22584;-74
2022/04/24 06:15:24;;;;;;;48.00;30.20;;;;;;;6.65;82.10;97415.90;105564;1284;138070;-73
2022/04/24 06:17:53;;;;;;;47.80;30.50;;;;;;;6.70;82.33;97412.20;105600;1284;22749;-73
2022/04/24 06:20:22;;;;;;;44.20;26.80;;;;;;;6.76;82.11;97404.17;105706;1284;22582;-75
2022/04/24 06:22:54;;;;;;;41.80;27.30;;;;;;;6.80;81.90;97399.25;105307;1284;137902;-75
2022/04/24 06:25:27;;;;;;;43.40;28.70;;;;;;;6.80;82.07;97405.96;105569;1284;22568;-73
2022/04/24 06:27:54;;;;;;;46.30;29.70;;;;;;;6.83;82.51;97401.74;105458;1284;137688;-73
2022/04/24 06:30:24;;;;;;;49.90;30.10;;;;;;;6.88;82.55;97399.05;105227;1284;23788;-73
2022/04/24 06:32:52;;;;;;;41.40;27.60;;;;;;;6.93;82.41;97400.38;105409;1284;23933;-73
2022/04/24 06:35:20;;;;;;;42.90;27.50;;;;;;;6.99;82.38;97397.00;105444;1284;137797;-73
2022/04/24 06:37:50;;;;;;;48.50;28.20;;;;;;;7.06;82.06;97393.09;105531;1284;25272;-73
2022/04/24 06:40:19;;;;;;;43.20;28.50;;;;;;;7.09;81.87;97383.55;105533;1284;138219;-73
2022/04/24 06:42:49;;;;;;;45.60;27.60;;;;;;;7.12;81.96;97374.77;105546;1284;22869;-74
2022/04/24 06:45:20;;;;;;;43.00;27.70;;;;;;;7.16;81.88;97374.00;105540;1284;138524;-74
2022/04/24 06:47:47;;;;;;;40.50;24.90;;;;;;;7.19;81.89;97370.59;105387;1284;22584;-74
2022/04/24 06:50:14;;;;;;;40.30;26.20;;;;;;;7.23;81.87;97366.19;105634;1284;25377;-74
2022/04/24 06:52:40;;;;;;;42.00;25.80;;;;;;;7.24;81.75;97361.45;105795;1283;137748;-74
2022/04/24 06:55:08;;;;;;;40.30;24.70;;;;;;;7.28;81.77;97363.98;105984;1282;22535;-74
2022/04/24 06:57:51;;;;;;;39.10;26.40;;;;;;;7.31;81.71;97364.84;105625;1284;138127;-73
2022/04/24 07:00:19;;;;;;;35.10;24.70;;;;;;;7.35;81.67;97363.81;105833;1284;22544;-73
2022/04/24 07:02:47;;;;;;;36.50;23.80;;;;;;;7.39;81.94;97362.62;105658;1283;22728;-75
2022/04/24 07:05:16;;;;;;;34.50;23.10;;;;;;;7.45;81.72;97369.08;105619;1284;137934;-73
2022/04/24 07:07:43;;;;;;;34.70;24.00;;;;;;;7.49;82.02;97374.83;105734;1282;22538;-74
2022/04/24 07:10:10;;;;;;;36.70;23.60;;;;;;;7.51;82.04;97371.48;105543;1284;137603;-73
2022/04/24 07:12:48;;;;;;;34.10;23.80;;;;;;;7.55;82.07;97368.07;105743;1284;22542;-74
2022/04/24 07:15:15;;;;;;;33.90;23.20;;;;;;;7.62;82.07;97366.69;105609;1284;138565;-73
2022/04/24 07:17:43;;;;;;;33.50;22.10;;;;;;;7.71;82.27;97369.02;105665;1283;25363;-74
2022/04/24 07:20:24;;;;;;;36.00;24.10;;;;;;;7.79;81.98;97369.27;105171;1285;30417;-75
2022/04/24 07:22:53;;;;;;;37.20;24.40;;;;;;;7.87;82.09;97368.55;104841;1285;137801;-73
2022/04/24 07:25:22;;;;;;;34.30;23.90;;;;;;;7.95;82.26;97364.19;105365;1285;22656;-76
2022/04/24 07:27:50;;;;;;;;;;;;;;;8.03;82.04;97362.21;105131;1286;138799;-74
2022/04/24 07:30:30;;;;;;;33.50;22.60;;;;;;;8.10;81.77;97359.23;105405;1283;303668;-74
2022/04/24 07:32:59;;;;;;;40.80;25.00;;;;;;;8.17;82.00;97352.59;105565;1284;25348;-74
2022/04/24 07:35:31;;;;;;;33.80;23.70;;;;;;;8.26;81.73;97349.95;105290;1282;138446;-74
2022/04/24 07:37:58;;;;;;;40.90;25.90;;;;;;;8.31;81.25;97342.61;105674;1283;24241;-74
2022/04/24 07:40:27;;;;;;;36.20;22.20;;;;;;;8.34;81.19;97344.27;106414;1282;137835;-74
2022/04/24 07:42:57;;;;;;;34.80;23.90;;;;;;;8.37;80.59;97345.76;106136;1283;25510;-74
2022/04/24 07:45:47;;;;;;;31.60;21.20;;;;;;;8.41;80.54;97346.45;105761;1284;138608;-75
2022/04/24 07:48:15;;;;;;;36.70;23.80;;;;;;;8.44;80.74;97345.76;105887;1284;22544;-74
2022/04/24 07:50:57;;;;;;;35.00;22.50;;;;;;;8.48;80.39;97343.71;105793;1283;22553;-74
2022/04/24 07:53:24;;;;;;;37.20;23.80;;;;;;;8.50;80.31;97337.86;105661;1284;137648;-74
2022/04/24 07:55:51;;;;;;;35.40;23.60;;;;;;;8.54;80.35;97335.08;105909;1282;23994;-74
2022/04/24 07:58:32;;;;;;;32.50;22.20;;;;;;;8.62;80.63;97328.36;105924;1284;138569;-74
2022/04/24 08:00:59;;;;;;;31.90;21.50;;;;;;;8.70;80.17;97328.63;106197;1284;22580;-75
2022/04/24 08:03:26;;;;;;;36.80;22.20;;;;;;;8.76;80.25;97332.80;105728;1284;137854;-75
2022/04/24 08:05:53;;;;;;;37.40;25.80;;;;;;;8.82;79.95;97333.90;106017;1284;23402;-75
2022/04/24 08:08:22;;;;;;;38.20;24.30;;;;;;;8.85;80.33;97331.63;105928;1284;24319;-75
2022/04/24 08:10:51;;;;;;;34.40;22.50;;;;;;;8.90;80.13;97339.57;106074;1282;138066;-75
2022/04/24 08:13:20;;;;;;;35.30;22.00;;;;;;;8.91;79.99;97338.21;105931;1282;22817;-75
2022/04/24 08:15:48;;;;;;;31.40;21.40;;;;;;;8.95;79.71;97343.77;105679;1282;138365;-75
2022/04/24 08:18:16;;;;;;;34.50;21.90;;;;;;;8.99;79.77;97344.95;106157;1282;25529;-75
2022/04/24 08:20:57;;;;;;;35.90;23.10;;;;;;;9.01;79.65;97344.48;105855;1283;22773;-75
2022/04/24 08:23:25;;;;;;;31.10;21.00;;;;;;;9.04;79.43;97344.64;106052;1283;137643;-75
2022/04/24 08:25:53;;;;;;;30.60;20.80;;;;;;;9.09;79.53;97344.30;105946;1284;22550;-75
2022/04/24 08:28:21;;;;;;;35.10;21.10;;;;;;;9.12;79.26;97346.88;105860;1284;138754;-75
2022/04/24 08:30:49;;;;;;;30.60;20.80;;;;;;;9.17;78.94;97343.85;105621;1283;25377;-75
2022/04/24 08:33:17;;;;;;;33.00;22.80;;;;;;;9.19;78.91;97334.53;105830;1283;137969;-75
2022/04/24 08:35:45;;;;;;;34.00;23.00;;;;;;;9.20;78.88;97334.36;106036;1283;22667;-75
2022/04/24 08:38:12;;;;;;;35.80;23.10;;;;;;;9.20;78.81;97326.38;105876;1282;22650;-75
2022/04/24 08:47:10;;;;;;;32.50;20.90;;;;;;;9.22;78.81;97328.17;103631;1303;564224;-77
2022/04/24 08:49:47;;;;;;;32.90;22.50;;;;;;;9.24;78.79;97318.52;103018;1313;546033;-74
2022/04/24 08:52:15;;;;;;;35.90;24.50;;;;;;;9.22;78.75;97315.85;104519;1290;137329;-76
2022/04/24 08:54:43;;;;;;;38.60;25.20;;;;;;;9.21;78.96;97316.77;104554;1290;24321;-75
2022/04/24 08:57:14;;;;;;;39.00;24.60;;;;;;;9.22;79.03;97320.52;104731;1290;136917;-75
2022/04/24 08:59:43;;;;;;;42.40;27.00;;;;;;;9.23;79.00;97322.48;105239;1290;22700;-75
2022/04/24 09:02:11;;;;;;;39.20;24.30;;;;;;;9.24;79.05;97326.18;104760;1293;22553;-75
2022/04/24 09:04:40;;;;;;;41.10;26.60;;;;;;;9.25;79.01;97326.35;104553;1291;136888;-75
2022/04/24 09:07:10;;;;;;;42.50;27.00;;;;;;;9.27;79.27;97324.34;105153;1290;24407;-75
2022/04/24 09:09:44;;;;;;;40.10;26.30;;;;;;;9.27;79.47;97324.62;105312;1289;137450;-75
2022/04/24 09:12:34;;;;;;;36.70;25.30;;;;;;;9.26;79.55;97324.02;104814;1290;22552;-75
2022/04/24 09:15:04;;;;;;;38.60;25.70;;;;;;;9.28;79.59;97327.67;105532;1285;22570;-75
2022/04/24 09:17:33;;;;;;;39.60;25.10;;;;;;;9.27;79.19;97326.84;105183;1287;137820;-75
2022/04/24 09:20:03;;;;;;;37.40;24.70;;;;;;;9.24;79.47;97327.21;105617;1285;22569;-75
2022/04/24 09:22:37;;;;;;;39.20;25.10;;;;;;;9.23;79.28;97325.20;105790;1284;138689;-73
2022/04/24 09:25:06;;;;;;;37.30;25.30;;;;;;;9.21;79.82;97319.32;105852;1286;22566;-72
2022/04/24 09:27:36;;;;;;;40.20;27.00;;;;;;;9.18;80.01;97321.15;105901;1286;137291;-72
2022/04/24 09:30:12;;;;;;;36.10;24.40;;;;;;;9.14;80.46;97319.50;105443;1285;22643;-73
2022/04/24 09:32:52;;;;;;;34.00;23.50;;;;;;;9.09;80.63;97322.24;105632;1286;24454;-73
2022/04/24 09:35:25;;;;;;;36.50;22.60;;;;;;;9.08;81.00;97319.52;105451;1286;137418;-73
2022/04/24 09:38:03;;;;;;;34.20;22.10;;;;;;;9.08;81.16;97318.02;105689;1285;22607;-73
2022/04/24 09:40:42;;;;;;;39.60;25.30;;;;;;;9.07;81.62;97317.19;105571;1285;137985;-73
2022/04/24 09:43:12;;;;;;;34.80;23.90;;;;;;;9.06;81.83;97316.80;105658;1286;25343;-73
2022/04/24 09:45:41;;;;;;;35.40;23.20;;;;;;;9.05;82.16;97315.00;105555;1286;138380;-73
2022/04/24 09:48:12;;;;;;;;;;;;;;;9.05;82.02;97311.75;105533;1286;25262;-73
2022/04/24 09:50:41;;;;;;;32.30;22.00;;;;;;;9.04;82.20;97305.92;105444;1287;22551;-73
2022/04/24 09:53:18;;;;;;;33.60;22.40;;;;;;;9.04;82.43;97306.20;105313;1286;137544;-73
2022/04/24 09:55:47;;;;;;;30.20;22.10;;;;;;;9.04;82.71;97301.64;105501;1286;22600;-73
2022/04/24 09:58:17;;;;;;;29.20;21.20;;;;;;;9.04;82.69;97301.96;106133;1279;137109;-73
2022/04/24 10:00:45;;;;;;;27.00;20.70;;;;;;;9.07;82.88;97305.83;106371;1279;24268;-73
2022/04/24 10:03:15;;;;;;;27.40;19.00;;;;;;;9.09;83.19;97297.97;106062;1279;25231;-73
2022/04/24 10:05:45;;;;;;;29.30;19.50;;;;;;;9.11;83.15;97302.98;106199;1278;137178;-73
2022/04/24 10:08:15;;;;;;;26.80;18.10;;;;;;;9.11;83.32;97304.17;106148;1277;22555;-73
2022/04/24 10:10:43;;;;;;;25.00;19.00;;;;;;;9.10;83.31;97300.46;106685;1278;137337;-73
2022/04/24 10:13:13;;;;;;;23.20;17.10;;;;;;;9.09;83.47;97294.49;106223;1279;22856;-73
2022/04/24 10:16:17;;;;;;;23.20;17.30;;;;;;;9.08;83.54;97306.05;105927;1278;137950;-73
2022/04/24 10:18:56;;;;;;;23.10;15.70;;;;;;;9.08;83.73;97304.15;106234;1280;22747;-73
2022/04/24 10:21:37;;;;;;;;;;;;;;;9.11;83.98;97299.72;105881;1279;137586;-73
2022/04/24 10:24:10;;;;;;;20.60;15.20;;;;;;;9.14;84.22;97296.41;106102;1278;22559;-73
2022/04/24 10:26:39;;;;;;;25.00;17.00;;;;;;;9.17;84.29;97288.13;106069;1279;24309;-73
2022/04/24 10:29:10;;;;;;;23.20;17.30;;;;;;;9.23;84.73;97281.52;106253;1280;137906;-73
2022/04/24 10:31:46;;;;;;;24.10;17.30;;;;;;;9.33;84.91;97279.05;106304;1280;22564;-73
2022/04/24 10:34:16;;;;;;;21.80;15.50;;;;;;;9.47;85.25;97276.66;105900;1278;137522;-73
2022/04/24 10:36:55;;;;;;;25.50;18.50;;;;;;;9.64;85.67;97265.67;106125;1280;22542;-73
2022/04/24 10:39:28;;;;;;;25.00;18.30;;;;;;;9.91;85.66;97262.30;106265;1277;137208;-73
2022/04/24 10:41:59;;;;;;;22.50;17.20;;;;;;;10.33;86.48;97255.04;106234;1277;22689;-73
2022/04/24 10:44:27;;;;;;;21.40;15.50;;;;;;;10.85;86.63;97255.45;106404;1277;22704;-73
2022/04/24 10:46:57;;;;;;;19.90;16.00;;;;;;;11.24;86.02;97249.81;105672;1279;138527;-73
2022/04/24 10:49:35;;;;;;;18.80;15.80;;;;;;;11.69;85.73;97242.42;106480;1278;22572;-73
2022/04/24 10:52:06;;;;;;;19.40;14.30;;;;;;;12.22;84.79;97234.06;106134;1278;137393;-73
2022/04/24 10:54:39;;;;;;;20.30;15.20;;;;;;;12.59;82.58;97221.56;106105;1279;22718;-73
2022/04/24 10:57:21;;;;;;;20.50;15.00;;;;;;;12.82;81.84;97221.14;106368;1278;22606;-73
2022/04/24 10:59:55;;;;;;;17.20;13.80;;;;;;;13.14;81.43;97219.09;106240;1279;137192;-73
2022/04/24 11:02:27;;;;;;;18.00;14.00;;;;;;;13.43;80.57;97209.23;106029;1279;23746;-73
2022/04/24 11:05:04;;;;;;;15.20;12.90;;;;;;;13.68;79.64;97207.52;105665;1280;137947;-73
2022/04/24 11:07:33;;;;;;;15.60;12.10;;;;;;;13.90;78.64;97202.21;105843;1280;24229;-74
2022/04/24 11:10:02;;;;;;;;;;;;;;;14.03;77.27;97195.42;105793;1280;137342;-74
2022/04/24 11:12:32;;;;;;;16.80;10.80;;;;;;;14.19;77.19;97186.52;105838;1279;22627;-74
2022/04/24 11:15:08;;;;;;;10.70;9.10;;;;;;;14.37;76.29;97191.85;105789;1279;24314;-74
2022/04/24 11:17:37;;;;;;;12.80;10.00;;;;;;;14.58;75.75;97199.23;105655;1279;137377;-74
2022/04/24 11:20:10;;;;;;;13.30;10.60;;;;;;;14.78;73.74;97194.85;105693;1279;22553;-74
2022/04/24 11:22:45;;;;;;;13.60;10.40;;;;;;;14.95;73.25;97195.08;105853;1279;137224;-74
2022/04/24 11:25:17;;;;;;;13.70;9.50;;;;;;;15.16;73.65;97191.87;105827;1280;25531;-74
2022/04/24 11:27:45;;;;;;;10.50;9.30;;;;;;;15.39;71.93;97192.63;105705;1279;137915;-74
2022/04/24 11:30:21;;;;;;;10.70;8.80;;;;;;;15.52;70.73;97190.90;106399;1277;22672;-72
2022/04/24 11:33:00;;;;;;;13.10;9.20;;;;;;;15.66;70.40;97188.75;106598;1279;22582;-73